sensor_id;sensor_type;location;lat;lon;timestamp;pressure;altitude;pressure_sealevel;temperature;humidity
2785;BME280;57944;48.722;9.316;2023-02-28T00:00:31;98723.44;;;-3.27;100.00
2785;BME280;57944;48.722;9.316;2023-02-28T00:03:03;98713.91;;;-3.21;100.00
2785;BME280;57944;48.722;9.316;2023-02-28T00:05:33;98718.44;;;-3.27;100.00
2785;BME280;57944;48.722;9.316;2023-02-28T00:08:06;98722.22;;;-3.20;100.00
2785;BME280;57944;48.722;9.316;2023-02-28T00:10:36;98720.97;;;-3.13;100.00
2785;BME280;57944;48.722;9.316;2023-02-28T00:13:07;98711.97;;;-3.16;100.00
2785;BME280;57944;48.722;9.316;2023-02-28T00:15:38;98715.06;;;-3.26;100.00
2785;BME280;57944;48.722;9.316;2023-02-28T00:18:08;98720.97;;;-3.13;100.00
2785;BME280;57944;48.722;9.316;2023-02-28T00:20:39;98721.31;;;-3.19;100.00
2785;BME280;57944;48.722;9.316;2023-02-28T00:23:11;98722.13;;;-3.19;100.00
2785;BME280;57944;48.722;9.316;2023-02-28T00:25:41;98715.72;;;-3.23;100.00
2785;BME280;57944;48.722;9.316;2023-02-28T00:28:11;98716.13;;;-3.30;100.00
2785;BME280;57944;48.722;9.316;2023-02-28T00:30:41;98716.84;;;-3.28;100.00
2785;BME280;57944;48.722;9.316;2023-02-28T00:33:12;98718.28;;;-3.24;100.00
2785;BME280;57944;48.722;9.316;2023-02-28T00:35:42;98716.13;;;-3.30;100.00
2785;BME280;57944;48.722;9.316;2023-02-28T00:38:16;98725.38;;;-3.32;100.00
2785;BME280;57944;48.722;9.316;2023-02-28T00:40:46;98715.88;;;-3.26;100.00
2785;BME280;57944;48.722;9.316;2023-02-28T00:43:16;98719.78;;;-3.22;100.00
2785;BME280;57944;48.722;9.316;2023-02-28T00:45:46;98720.03;;;-3.26;100.00
2785;BME280;57944;48.722;9.316;2023-02-28T00:48:16;98724.06;;;-3.24;100.00
2785;BME280;57944;48.722;9.316;2023-02-28T00:50:48;98726.13;;;-3.16;100.00
2785;BME280;57944;48.722;9.316;2023-02-28T00:53:21;98714.38;;;-3.14;100.00
2785;BME280;57944;48.722;9.316;2023-02-28T00:55:51;98707.50;;;-3.25;100.00
2785;BME280;57944;48.722;9.316;2023-02-28T00:58:21;98719.09;;;-3.09;100.00
2785;BME280;57944;48.722;9.316;2023-02-28T01:00:53;98713.69;;;-3.02;100.00
2785;BME280;57944;48.722;9.316;2023-02-28T01:03:23;98719.00;;;-3.08;100.00
2785;BME280;57944;48.722;9.316;2023-02-28T01:05:53;98714.09;;;-3.09;100.00
2785;BME280;57944;48.722;9.316;2023-02-28T01:08:26;98710.44;;;-3.18;100.00
2785;BME280;57944;48.722;9.316;2023-02-28T01:10:56;98719.63;;;-3.19;100.00
2785;BME280;57944;48.722;9.316;2023-02-28T01:13:26;98713.13;;;-3.21;100.00
2785;BME280;57944;48.722;9.316;2023-02-28T01:15:57;98708.47;;;-3.27;100.00
2785;BME280;57944;48.722;9.316;2023-02-28T01:18:28;98712.91;;;-3.32;100.00
2785;BME280;57944;48.722;9.316;2023-02-28T01:21:03;98705.19;;;-3.28;100.00
2785;BME280;57944;48.722;9.316;2023-02-28T01:23:35;98714.38;;;-3.14;100.00
2785;BME280;57944;48.722;9.316;2023-02-28T01:26:07;98707.41;;;-3.23;100.00
2785;BME280;57944;48.722;9.316;2023-02-28T01:28:40;98705.28;;;-3.29;100.00
2785;BME280;57944;48.722;9.316;2023-02-28T01:31:10;98699.94;;;-3.23;100.00
2785;BME280;57944;48.722;9.316;2023-02-28T01:33:41;98705.03;;;-3.25;100.00
2785;BME280;57944;48.722;9.316;2023-02-28T01:36:14;98701.91;;;-3.14;100.00
2785;BME280;57944;48.722;9.316;2023-02-28T01:38:48;98703.16;;;-3.21;100.00
2785;BME280;57944;48.722;9.316;2023-02-28T01:41:23;98704.41;;;-3.28;100.00
2785;BME280;57944;48.722;9.316;2023-02-28T01:44:02;98702.41;;;-3.38;100.00
2785;BME280;57944;48.722;9.316;2023-02-28T01:46:34;98698.50;;;-3.42;100.00
2785;BME280;57944;48.722;9.316;2023-02-28T01:49:11;98703.31;;;-3.39;100.00
2785;BME280;57944;48.722;9.316;2023-02-28T01:51:47;98698.59;;;-3.29;100.00
2785;BME280;57944;48.722;9.316;2023-02-28T01:54:29;98696.56;;;-3.22;100.00
2785;BME280;57944;48.722;9.316;2023-02-28T01:57:04;98695.94;;;-3.26;100.00
2785;BME280;57944;48.722;9.316;2023-02-28T01:59:41;98690.06;;;-3.10;100.00
2785;BME280;57944;48.722;9.316;2023-02-28T02:02:19;98682.69;;;-3.12;100.00
2785;BME280;57944;48.722;9.316;2023-02-28T02:04:55;98681.44;;;-3.19;100.00
2785;BME280;57944;48.722;9.316;2023-02-28T02:07:32;98681.25;;;-3.16;100.00
2785;BME280;57944;48.722;9.316;2023-02-28T02:10:12;98683.81;;;-3.18;100.00
2785;BME280;57944;48.722;9.316;2023-02-28T02:13:08;98680.34;;;-3.15;100.00
2785;BME280;57944;48.722;9.316;2023-02-28T02:15:46;98673.53;;;-3.11;100.00
2785;BME280;57944;48.722;9.316;2023-02-28T02:18:31;98677.34;;;-3.06;100.00
2785;BME280;57944;48.722;9.316;2023-02-28T02:21:50;98675.41;;;-3.01;100.00
2785;BME280;57944;48.722;9.316;2023-02-28T02:25:00;98678.69;;;-2.86;100.00
2785;BME280;57944;48.722;9.316;2023-02-28T02:28:17;98669.25;;;-2.95;100.00
2785;BME280;57944;48.722;9.316;2023-02-28T02:31:26;98671.63;;;-2.79;100.00
2785;BME280;57944;48.722;9.316;2023-02-28T02:34:26;98666.56;;;-2.78;100.00
2785;BME280;57944;48.722;9.316;2023-02-28T02:37:07;98664.63;;;-2.87;100.00
2785;BME280;57944;48.722;9.316;2023-02-28T02:39:48;98660.44;;;-2.86;100.00
2785;BME280;57944;48.722;9.316;2023-02-28T02:42:25;98664.16;;;-2.79;100.00
2785;BME280;57944;48.722;9.316;2023-02-28T02:45:04;98661.25;;;-2.44;100.00
2785;BME280;57944;48.722;9.316;2023-02-28T02:47:37;98665.22;;;-2.28;100.00
2785;BME280;57944;48.722;9.316;2023-02-28T02:50:17;98668.97;;;-2.35;100.00
2785;BME280;57944;48.722;9.316;2023-02-28T02:52:55;98664.72;;;-2.47;100.00
2785;BME280;57944;48.722;9.316;2023-02-28T02:55:33;98658.75;;;-2.44;100.00
2785;BME280;57944;48.722;9.316;2023-02-28T02:58:09;98657.16;;;-2.60;100.00
2785;BME280;57944;48.722;9.316;2023-02-28T03:00:43;98661.97;;;-2.57;100.00
2785;BME280;57944;48.722;9.316;2023-02-28T03:03:19;98658.78;;;-2.59;100.00
2785;BME280;57944;48.722;9.316;2023-02-28T03:06:00;98661.25;;;-2.44;100.00
2785;BME280;57944;48.722;9.316;2023-02-28T03:08:36;98659.81;;;-2.49;100.00
2785;BME280;57944;48.722;9.316;2023-02-28T03:11:13;98664.31;;;-2.68;100.00
2785;BME280;57944;48.722;9.316;2023-02-28T03:13:59;98669.47;;;-2.57;100.00
2785;BME280;57944;48.722;9.316;2023-02-28T03:16:36;98663.69;;;-2.57;100.00
2785;BME280;57944;48.722;9.316;2023-02-28T03:19:45;98663.88;;;-2.60;100.00
2785;BME280;57944;48.722;9.316;2023-02-28T03:22:43;98668.94;;;-2.48;100.00
2785;BME280;57944;48.722;9.316;2023-02-28T03:25:28;98677.28;;;-2.49;100.00
2785;BME280;57944;48.722;9.316;2023-02-28T03:28:08;98675.69;;;-2.50;100.00
2785;BME280;57944;48.722;9.316;2023-02-28T03:30:50;98676.88;;;-2.55;100.00
2785;BME280;57944;48.722;9.316;2023-02-28T03:33:27;98675.31;;;-2.43;100.00
2785;BME280;57944;48.722;9.316;2023-02-28T03:36:02;98678.97;;;-2.35;100.00
2785;BME280;57944;48.722;9.316;2023-02-28T03:38:41;98667.19;;;-2.06;100.00
2785;BME280;57944;48.722;9.316;2023-02-28T03:41:17;98660.53;;;-1.92;100.00
2785;BME280;57944;48.722;9.316;2023-02-28T03:43:54;98666.69;;;-1.98;100.00
2785;BME280;57944;48.722;9.316;2023-02-28T03:46:31;98663.09;;;-2.07;100.00
2785;BME280;57944;48.722;9.316;2023-02-28T03:49:08;98668.19;;;-2.08;100.00
2785;BME280;57944;48.722;9.316;2023-02-28T03:51:42;98666.69;;;-2.11;100.00
2785;BME280;57944;48.722;9.316;2023-02-28T03:54:22;98664.13;;;-1.96;100.00
2785;BME280;57944;48.722;9.316;2023-02-28T03:57:00;98660.13;;;-1.99;100.00
2785;BME280;57944;48.722;9.316;2023-02-28T03:59:37;98660.25;;;-2.15;100.00
2785;BME280;57944;48.722;9.316;2023-02-28T04:02:10;98667.00;;;-2.03;100.00
2785;BME280;57944;48.722;9.316;2023-02-28T04:04:40;98668.53;;;-1.87;100.00
2785;BME280;57944;48.722;9.316;2023-02-28T04:07:12;98666.16;;;-1.76;100.00
2785;BME280;57944;48.722;9.316;2023-02-28T04:09:45;98671.28;;;-1.65;100.00
2785;BME280;57944;48.722;9.316;2023-02-28T04:12:15;98667.09;;;-1.64;100.00
2785;BME280;57944;48.722;9.316;2023-02-28T04:14:45;98672.19;;;-1.66;100.00
2785;BME280;57944;48.722;9.316;2023-02-28T04:17:15;98679.97;;;-1.70;100.00
2785;BME280;57944;48.722;9.316;2023-02-28T04:19:45;98669.78;;;-1.67;100.00
2785;BME280;57944;48.722;9.316;2023-02-28T04:22:15;98666.34;;;-1.79;100.00
2785;BME280;57944;48.722;9.316;2023-02-28T04:24:48;98664.19;;;-1.71;100.00
2785;BME280;57944;48.722;9.316;2023-02-28T04:27:18;98673.97;;;-1.68;100.00
2785;BME280;57944;48.722;9.316;2023-02-28T04:29:48;98667.81;;;-1.49;100.00
2785;BME280;57944;48.722;9.316;2023-02-28T04:32:18;98673.53;;;-1.47;100.00
2785;BME280;57944;48.722;9.316;2023-02-28T04:34:48;98672.09;;;-1.51;100.00
2785;BME280;57944;48.722;9.316;2023-02-28T04:37:18;98666.41;;;-1.53;100.00
2785;BME280;57944;48.722;9.316;2023-02-28T04:39:57;98674.81;;;-1.54;100.00
2785;BME280;57944;48.722;9.316;2023-02-28T04:42:27;98668.00;;;-1.52;100.00
2785;BME280;57944;48.722;9.316;2023-02-28T04:45:03;98680.03;;;-1.45;100.00
2785;BME280;57944;48.722;9.316;2023-02-28T04:47:34;98669.00;;;-1.55;100.00
2785;BME280;57944;48.722;9.316;2023-02-28T04:50:05;98663.41;;;-1.59;100.00
2785;BME280;57944;48.722;9.316;2023-02-28T04:52:35;98664.41;;;-1.48;100.00
2785;BME280;57944;48.722;9.316;2023-02-28T04:55:09;98669.28;;;-1.60;100.00
2785;BME280;57944;48.722;9.316;2023-02-28T04:57:40;98668.44;;;-1.33;100.00
2785;BME280;57944;48.722;9.316;2023-02-28T05:00:12;98661.81;;;-1.47;100.00
2785;BME280;57944;48.722;9.316;2023-02-28T05:02:43;98668.41;;;-1.46;100.00
2785;BME280;57944;48.722;9.316;2023-02-28T05:05:13;98671.34;;;-1.39;100.00
2785;BME280;57944;48.722;9.316;2023-02-28T05:07:45;98662.00;;;-1.63;100.00
2785;BME280;57944;48.722;9.316;2023-02-28T05:10:18;98669.56;;;-1.77;100.00
2785;BME280;57944;48.722;9.316;2023-02-28T05:12:48;98673.53;;;-1.47;100.00
2785;BME280;57944;48.722;9.316;2023-02-28T05:15:18;98667.19;;;-1.66;100.00
2785;BME280;57944;48.722;9.316;2023-02-28T05:17:48;98670.78;;;-1.70;100.00
2785;BME280;57944;48.722;9.316;2023-02-28T05:20:18;98662.59;;;-1.72;100.00
2785;BME280;57944;48.722;9.316;2023-02-28T05:22:50;98670.69;;;-1.68;100.00
2785;BME280;57944;48.722;9.316;2023-02-28T05:25:22;98664.19;;;-1.71;100.00
2785;BME280;57944;48.722;9.316;2023-02-28T05:27:52;98673.66;;;-1.76;100.00
2785;BME280;57944;48.722;9.316;2023-02-28T05:30:22;98674.38;;;-1.74;100.00
2785;BME280;57944;48.722;9.316;2023-02-28T05:32:52;98670.09;;;-1.72;100.00
2785;BME280;57944;48.722;9.316;2023-02-28T05:35:22;98683.09;;;-1.67;100.00
2785;BME280;57944;48.722;9.316;2023-02-28T05:37:53;98668.50;;;-1.60;100.00
2785;BME280;57944;48.722;9.316;2023-02-28T05:40:25;98670.59;;;-1.67;100.00
2785;BME280;57944;48.722;9.316;2023-02-28T05:42:55;98673.38;;;-1.71;100.00
2785;BME280;57944;48.722;9.316;2023-02-28T05:45:25;98669.75;;;-1.80;100.00
2785;BME280;57944;48.722;9.316;2023-02-28T05:47:56;98678.28;;;-1.70;100.00
2785;BME280;57944;48.722;9.316;2023-02-28T05:50:26;98681.06;;;-1.62;100.00
2785;BME280;57944;48.722;9.316;2023-02-28T05:52:56;98690.59;;;-1.67;100.00
2785;BME280;57944;48.722;9.316;2023-02-28T05:55:29;98685.47;;;-1.78;100.00
2785;BME280;57944;48.722;9.316;2023-02-28T05:57:59;98686.97;;;-1.63;100.00
2785;BME280;57944;48.722;9.316;2023-02-28T06:00:29;98688.78;;;-1.65;100.00
2785;BME280;57944;48.722;9.316;2023-02-28T06:02:59;98692.19;;;-1.66;100.00
2785;BME280;57944;48.722;9.316;2023-02-28T06:05:29;98695.19;;;-1.61;100.00
2785;BME280;57944;48.722;9.316;2023-02-28T06:08:00;98688.81;;;-1.52;100.00
2785;BME280;57944;48.722;9.316;2023-02-28T06:10:33;98692.59;;;-1.59;100.00
2785;BME280;57944;48.722;9.316;2023-02-28T06:13:04;98702.31;;;-1.29;100.00
2785;BME280;57944;48.722;9.316;2023-02-28T06:15:34;98696.66;;;-1.31;100.00
2785;BME280;57944;48.722;9.316;2023-02-28T06:18:05;98689.41;;;-1.48;100.00
2785;BME280;57944;48.722;9.316;2023-02-28T06:20:35;98692.63;;;-1.46;100.00
2785;BME280;57944;48.722;9.316;2023-02-28T06:23:05;98693.63;;;-1.10;100.00
2785;BME280;57944;48.722;9.316;2023-02-28T06:25:37;98697.16;;;-1.00;100.00
2785;BME280;57944;48.722;9.316;2023-02-28T06:28:07;98695.22;;;-1.09;100.00
2785;BME280;57944;48.722;9.316;2023-02-28T06:30:38;98704.84;;;-1.16;100.00
2785;BME280;57944;48.722;9.316;2023-02-28T06:33:08;98715.13;;;-1.21;100.00
2785;BME280;57944;48.722;9.316;2023-02-28T06:35:39;98713.66;;;-1.10;100.00
2785;BME280;57944;48.722;9.316;2023-02-28T06:38:09;98710.34;;;-0.98;100.00
2785;BME280;57944;48.722;9.316;2023-02-28T06:40:41;98723.03;;;-1.01;100.00
2785;BME280;57944;48.722;9.316;2023-02-28T06:43:11;98720.94;;;-0.69;100.00
2785;BME280;57944;48.722;9.316;2023-02-28T06:45:43;98719.66;;;-1.00;100.00
2785;BME280;57944;48.722;9.316;2023-02-28T06:48:13;98731.16;;;-0.98;100.00
2785;BME280;57944;48.722;9.316;2023-02-28T06:50:44;98726.47;;;-1.02;100.00
2785;BME280;57944;48.722;9.316;2023-02-28T06:53:15;98725.66;;;-1.16;100.00
2785;BME280;57944;48.722;9.316;2023-02-28T06:55:47;98727.66;;;-0.95;100.00
2785;BME280;57944;48.722;9.316;2023-02-28T06:58:17;98724.44;;;-1.10;100.00
2785;BME280;57944;48.722;9.316;2023-02-28T07:00:51;98726.84;;;-0.96;100.00
2785;BME280;57944;48.722;9.316;2023-02-28T07:03:21;98728.16;;;-1.03;100.00
2785;BME280;57944;48.722;9.316;2023-02-28T07:05:51;98733.25;;;-1.04;100.00
2785;BME280;57944;48.722;9.316;2023-02-28T07:08:23;98733.84;;;-1.14;100.00
2785;BME280;57944;48.722;9.316;2023-02-28T07:10:56;98733.56;;;-0.96;100.00
2785;BME280;57944;48.722;9.316;2023-02-28T07:13:27;98733.75;;;-0.99;100.00
2785;BME280;57944;48.722;9.316;2023-02-28T07:16:00;98736.47;;;-1.02;100.00
2785;BME280;57944;48.722;9.316;2023-02-28T07:18:31;98740.44;;;-0.87;100.00
2785;BME280;57944;48.722;9.316;2023-02-28T07:21:04;98744.25;;;-0.69;100.00
2785;BME280;57944;48.722;9.316;2023-02-28T07:23:35;98737.63;;;-0.57;100.00
2785;BME280;57944;48.722;9.316;2023-02-28T07:26:13;98742.13;;;-0.62;99.39
2785;BME280;57944;48.722;9.316;2023-02-28T07:28:47;98743.03;;;-0.50;100.00
2785;BME280;57944;48.722;9.316;2023-02-28T07:31:18;98746.16;;;-0.23;100.00
2785;BME280;57944;48.722;9.316;2023-02-28T07:33:48;98744.88;;;-0.28;98.43
2785;BME280;57944;48.722;9.316;2023-02-28T07:36:19;98746.16;;;-0.23;97.15
2785;BME280;57944;48.722;9.316;2023-02-28T07:38:49;98739.41;;;-0.33;95.59
2785;BME280;57944;48.722;9.316;2023-02-28T07:41:22;98746.59;;;-0.29;95.72
2785;BME280;57944;48.722;9.316;2023-02-28T07:43:55;98749.81;;;-0.39;95.38
2785;BME280;57944;48.722;9.316;2023-02-28T07:46:26;98742.50;;;-0.30;95.27
2785;BME280;57944;48.722;9.316;2023-02-28T07:49:03;98744.94;;;-0.17;98.44
2785;BME280;57944;48.722;9.316;2023-02-28T07:51:34;98749.56;;;-0.11;94.51
2785;BME280;57944;48.722;9.316;2023-02-28T07:54:05;98754.09;;;-0.29;92.84
2785;BME280;57944;48.722;9.316;2023-02-28T07:56:37;98757.03;;;-0.35;93.21
2785;BME280;57944;48.722;9.316;2023-02-28T07:59:07;98757.41;;;-0.28;94.22
2785;BME280;57944;48.722;9.316;2023-02-28T08:01:38;98756.97;;;-0.09;92.82
2785;BME280;57944;48.722;9.316;2023-02-28T08:04:08;98757.94;;;0.01;99.46
2785;BME280;57944;48.722;9.316;2023-02-28T08:06:38;98756.53;;;-0.03;91.74
2785;BME280;57944;48.722;9.316;2023-02-28T08:09:08;98762.63;;;0.30;98.09
2785;BME280;57944;48.722;9.316;2023-02-28T08:11:41;98771.16;;;0.27;89.00
2785;BME280;57944;48.722;9.316;2023-02-28T08:14:11;98766.47;;;0.22;90.53
2785;BME280;57944;48.722;9.316;2023-02-28T08:16:41;98766.16;;;0.03;93.11
2785;BME280;57944;48.722;9.316;2023-02-28T08:19:11;98766.66;;;0.19;90.44
2785;BME280;57944;48.722;9.316;2023-02-28T08:21:41;98769.41;;;0.40;87.87
2785;BME280;57944;48.722;9.316;2023-02-28T08:24:11;98770.63;;;0.35;87.53
2785;BME280;57944;48.722;9.316;2023-02-28T08:26:44;98775.00;;;0.44;86.63
2785;BME280;57944;48.722;9.316;2023-02-28T08:29:14;98773.03;;;0.72;87.23
2785;BME280;57944;48.722;9.316;2023-02-28T08:31:44;98776.03;;;0.77;85.75
2785;BME280;57944;48.722;9.316;2023-02-28T08:34:16;98765.28;;;0.75;83.15
2785;BME280;57944;48.722;9.316;2023-02-28T08:36:46;98768.19;;;0.93;83.21
2785;BME280;57944;48.722;9.316;2023-02-28T08:39:16;98771.78;;;1.13;88.28
2785;BME280;57944;48.722;9.316;2023-02-28T08:41:49;98771.44;;;1.17;88.29
2785;BME280;57944;48.722;9.316;2023-02-28T08:44:33;98775.09;;;1.24;87.35
2785;BME280;57944;48.722;9.316;2023-02-28T08:47:03;98774.97;;;1.15;89.39
2785;BME280;57944;48.722;9.316;2023-02-28T08:49:34;98776.31;;;0.96;80.94
2785;BME280;57944;48.722;9.316;2023-02-28T08:52:04;98770.25;;;0.87;87.39
2785;BME280;57944;48.722;9.316;2023-02-28T08:54:35;98778.41;;;0.43;83.23
2785;BME280;57944;48.722;9.316;2023-02-28T08:57:08;98778.94;;;0.59;91.79
2785;BME280;57944;48.722;9.316;2023-02-28T08:59:38;98778.91;;;0.95;84.98
2785;BME280;57944;48.722;9.316;2023-02-28T09:02:12;98780.63;;;1.05;82.37
2785;BME280;57944;48.722;9.316;2023-02-28T09:04:42;98776.44;;;1.06;78.21
2785;BME280;57944;48.722;9.316;2023-02-28T09:07:12;98782.16;;;1.19;80.35
2785;BME280;57944;48.722;9.316;2023-02-28T09:09:43;98787.84;;;1.10;77.21
2785;BME280;57944;48.722;9.316;2023-02-28T09:12:26;98791.16;;;1.22;80.17
2785;BME280;57944;48.722;9.316;2023-02-28T09:14:56;98788.34;;;1.26;76.62
2785;BME280;57944;48.722;9.316;2023-02-28T09:17:27;98787.28;;;1.18;80.89
2785;BME280;57944;48.722;9.316;2023-02-28T09:19:58;98792.44;;;1.61;78.65
2785;BME280;57944;48.722;9.316;2023-02-28T09:22:28;98791.09;;;1.46;76.25
2785;BME280;57944;48.722;9.316;2023-02-28T09:24:58;98787.78;;;1.56;76.54
2785;BME280;57944;48.722;9.316;2023-02-28T09:27:30;98789.06;;;2.17;89.29
2785;BME280;57944;48.722;9.316;2023-02-28T09:30:00;98787.72;;;2.01;73.27
2785;BME280;57944;48.722;9.316;2023-02-28T09:32:30;98786.28;;;2.20;84.04
2785;BME280;57944;48.722;9.316;2023-02-28T09:35:00;98793.13;;;2.61;70.58
2785;BME280;57944;48.722;9.316;2023-02-28T09:37:30;98781.34;;;2.41;68.41
2785;BME280;57944;48.722;9.316;2023-02-28T09:40:00;98794.59;;;2.64;67.42
2785;BME280;57944;48.722;9.316;2023-02-28T09:42:34;98800.69;;;2.29;69.70
2785;BME280;57944;48.722;9.316;2023-02-28T09:45:14;98802.28;;;2.30;67.50
2785;BME280;57944;48.722;9.316;2023-02-28T09:47:50;98806.16;;;2.66;68.69
2785;BME280;57944;48.722;9.316;2023-02-28T09:50:33;98804.25;;;3.01;68.51
2785;BME280;57944;48.722;9.316;2023-02-28T09:53:15;98804.63;;;3.17;66.96
2785;BME280;57944;48.722;9.316;2023-02-28T09:55:53;98809.22;;;3.54;60.66
2785;BME280;57944;48.722;9.316;2023-02-28T09:58:34;98804.78;;;3.46;58.06
2785;BME280;57944;48.722;9.316;2023-02-28T10:01:18;98811.63;;;3.65;58.10
2785;BME280;57944;48.722;9.316;2023-02-28T10:03:57;98802.22;;;3.67;58.34
2785;BME280;57944;48.722;9.316;2023-02-28T10:06:33;98814.97;;;4.25;59.06
2785;BME280;57944;48.722;9.316;2023-02-28T10:09:11;98802.63;;;4.81;66.28
2785;BME280;57944;48.722;9.316;2023-02-28T10:11:45;98818.50;;;5.30;59.07
2785;BME280;57944;48.722;9.316;2023-02-28T10:14:21;98818.66;;;5.19;54.31
2785;BME280;57944;48.722;9.316;2023-02-28T10:16:56;98815.25;;;5.47;56.32
2785;BME280;57944;48.722;9.316;2023-02-28T10:19:33;98826.28;;;5.83;58.19
2785;BME280;57944;48.722;9.316;2023-02-28T10:22:11;98824.56;;;6.12;56.01
2785;BME280;57944;48.722;9.316;2023-02-28T10:24:45;98822.88;;;6.30;51.71
2785;BME280;57944;48.722;9.316;2023-02-28T10:27:19;98835.31;;;6.41;52.89
2785;BME280;57944;48.722;9.316;2023-02-28T10:29:56;98832.31;;;6.28;54.94
2785;BME280;57944;48.722;9.316;2023-02-28T10:32:31;98834.22;;;6.62;52.98
2785;BME280;57944;48.722;9.316;2023-02-28T10:35:16;98824.72;;;6.82;51.24
2785;BME280;57944;48.722;9.316;2023-02-28T10:37:49;98819.59;;;6.74;50.21
2785;BME280;57944;48.722;9.316;2023-02-28T10:40:32;98822.03;;;7.27;52.71
2785;BME280;57944;48.722;9.316;2023-02-28T10:43:11;98819.03;;;7.06;52.85
2785;BME280;57944;48.722;9.316;2023-02-28T10:46:03;98816.41;;;6.89;49.40
2785;BME280;57944;48.722;9.316;2023-02-28T10:48:38;98819.16;;;7.22;51.06
2785;BME280;57944;48.722;9.316;2023-02-28T10:51:11;98813.19;;;8.08;46.58
2785;BME280;57944;48.722;9.316;2023-02-28T10:53:48;98815.19;;;8.39;49.18
2785;BME280;57944;48.722;9.316;2023-02-28T10:56:28;98824.22;;;8.49;45.52
2785;BME280;57944;48.722;9.316;2023-02-28T10:59:02;98817.53;;;9.14;44.38
2785;BME280;57944;48.722;9.316;2023-02-28T11:01:42;98822.19;;;8.78;46.84
2785;BME280;57944;48.722;9.316;2023-02-28T11:04:33;98820.88;;;9.23;45.06
2785;BME280;57944;48.722;9.316;2023-02-28T11:07:17;98815.19;;;9.60;46.20
2785;BME280;57944;48.722;9.316;2023-02-28T11:09:53;98818.22;;;10.26;48.84
2785;BME280;57944;48.722;9.316;2023-02-28T11:12:29;98815.28;;;10.60;47.20
2785;BME280;57944;48.722;9.316;2023-02-28T11:15:23;98810.44;;;10.50;46.66
2785;BME280;57944;48.722;9.316;2023-02-28T11:18:00;98819.69;;;10.89;47.42
2785;BME280;57944;48.722;9.316;2023-02-28T11:20:33;98808.69;;;10.20;40.06
2785;BME280;57944;48.722;9.316;2023-02-28T11:23:05;98804.13;;;9.84;40.63
2785;BME280;57944;48.722;9.316;2023-02-28T11:25:47;98805.72;;;9.29;41.42
2785;BME280;57944;48.722;9.316;2023-02-28T11:28:28;98799.59;;;8.99;43.77
2785;BME280;57944;48.722;9.316;2023-02-28T11:31:15;98790.25;;;8.83;42.80
2785;BME280;57944;48.722;9.316;2023-02-28T11:33:51;98792.13;;;8.98;41.39
2785;BME280;57944;48.722;9.316;2023-02-28T11:36:25;98797.22;;;8.48;43.96
2785;BME280;57944;48.722;9.316;2023-02-28T11:38:59;98784.06;;;8.45;44.56
2785;BME280;57944;48.722;9.316;2023-02-28T11:44:53;98785.97;;;8.84;43.89
2785;BME280;57944;48.722;9.316;2023-02-28T11:47:36;98778.50;;;8.41;44.67
2785;BME280;57944;48.722;9.316;2023-02-28T11:50:23;98778.28;;;8.26;43.92
2785;BME280;57944;48.722;9.316;2023-02-28T11:53:00;98782.16;;;7.72;44.12
2785;BME280;57944;48.722;9.316;2023-02-28T11:55:35;98778.44;;;7.58;47.62
2785;BME280;57944;48.722;9.316;2023-02-28T11:58:27;98769.88;;;6.99;45.38
2785;BME280;57944;48.722;9.316;2023-02-28T12:01:15;98781.47;;;6.03;47.69
2785;BME280;57944;48.722;9.316;2023-02-28T12:04:06;98772.09;;;5.86;49.78
2785;BME280;57944;48.722;9.316;2023-02-28T12:06:47;98779.31;;;6.44;51.26
2785;BME280;57944;48.722;9.316;2023-02-28T12:09:43;98769.09;;;6.18;50.01
2785;BME280;57944;48.722;9.316;2023-02-28T12:12:33;98763.47;;;5.24;48.73
2785;BME280;57944;48.722;9.316;2023-02-28T12:15:28;98756.34;;;5.00;51.98
2785;BME280;57944;48.722;9.316;2023-02-28T12:18:18;98770.09;;;4.58;51.15
2785;BME280;57944;48.722;9.316;2023-02-28T12:21:01;98775.53;;;4.63;51.81
2785;BME280;57944;48.722;9.316;2023-02-28T12:24:17;98768.09;;;4.72;51.86
2785;BME280;57944;48.722;9.316;2023-02-28T12:26:53;98756.84;;;5.03;53.87
2785;BME280;57944;48.722;9.316;2023-02-28T12:29:29;98753.19;;;5.25;57.81
2785;BME280;57944;48.722;9.316;2023-02-28T12:32:08;98755.25;;;5.77;54.12
2785;BME280;57944;48.722;9.316;2023-02-28T12:34:46;98749.31;;;5.86;54.17
2785;BME280;57944;48.722;9.316;2023-02-28T12:37:22;98763.63;;;6.05;54.15
2785;BME280;57944;48.722;9.316;2023-02-28T12:40:03;98747.84;;;6.29;53.31
2785;BME280;57944;48.722;9.316;2023-02-28T12:42:40;98755.28;;;6.13;50.42
2785;BME280;57944;48.722;9.316;2023-02-28T12:45:18;98743.59;;;6.12;56.43
2785;BME280;57944;48.722;9.316;2023-02-28T12:47:56;98741.69;;;6.32;53.97
2785;BME280;57944;48.722;9.316;2023-02-28T12:50:28;98738.66;;;6.28;52.02
2785;BME280;57944;48.722;9.316;2023-02-28T12:53:02;98732.72;;;6.01;50.24
2785;BME280;57944;48.722;9.316;2023-02-28T12:55:42;98742.75;;;5.10;51.59
2785;BME280;57944;48.722;9.316;2023-02-28T12:58:25;98738.53;;;5.38;51.98
2785;BME280;57944;48.722;9.316;2023-02-28T13:01:39;98739.69;;;5.99;54.85
2785;BME280;57944;48.722;9.316;2023-02-28T13:04:47;98740.50;;;5.90;51.97
2785;BME280;57944;48.722;9.316;2023-02-28T13:08:10;98728.19;;;6.05;53.37
2785;BME280;57944;48.722;9.316;2023-02-28T13:10:50;98729.44;;;5.91;52.55
2785;BME280;57944;48.722;9.316;2023-02-28T13:13:25;98725.97;;;5.92;56.02
2785;BME280;57944;48.722;9.316;2023-02-28T13:16:05;98728.34;;;5.76;51.61
2785;BME280;57944;48.722;9.316;2023-02-28T13:18:38;98721.53;;;5.76;51.59
2785;BME280;57944;48.722;9.316;2023-02-28T13:21:24;98719.66;;;5.60;52.10
2785;BME280;57944;48.722;9.316;2023-02-28T13:24:01;98717.31;;;5.77;51.17
2785;BME280;57944;48.722;9.316;2023-02-28T13:33:27;98710.59;;;4.93;51.28
2785;BME280;57944;48.722;9.316;2023-02-28T13:36:09;98713.91;;;5.03;51.57
2785;BME280;57944;48.722;9.316;2023-02-28T13:38:43;98713.94;;;4.93;51.73
2785;BME280;57944;48.722;9.316;2023-02-28T13:41:48;98709.81;;;5.30;52.46
2785;BME280;57944;48.722;9.316;2023-02-28T13:44:20;98714.69;;;5.13;51.58
2785;BME280;57944;48.722;9.316;2023-02-28T13:47:28;98707.03;;;5.23;52.02
2785;BME280;57944;48.722;9.316;2023-02-28T13:50:28;98720.31;;;5.35;51.76
2785;BME280;57944;48.722;9.316;2023-02-28T13:56:31;98713.06;;;5.95;52.42
2785;BME280;57944;48.722;9.316;2023-02-28T13:59:22;98707.88;;;5.24;51.39
2785;BME280;57944;48.722;9.316;2023-02-28T14:02:17;98713.56;;;5.53;53.25
2785;BME280;57944;48.722;9.316;2023-02-28T14:05:06;98708.41;;;5.45;53.00
2785;BME280;57944;48.722;9.316;2023-02-28T14:08:07;98707.31;;;5.57;51.43
2785;BME280;57944;48.722;9.316;2023-02-28T14:10:45;98712.91;;;5.51;51.16